Time;durP1;ratioP1;P1;durP2;ratioP2;P2;SDS_P1;SDS_P2;PMS_P1;PMS_P2;Temp;Humidity;BMP_temperature;BMP_pressure;BME280_temperature;BME280_humidity;BME280_pressure;Samples;Min_cycle;Max_cycle;Signal;HPM_P1;HPM_P2
2022/03/18 00:01:24;;;;;;;23.48;19.35;;;7.00;99.90;;;;;;5028357;28;20241;-75
2022/03/18 00:03:52;;;;;;;28.83;21.75;;;7.10;99.90;;;;;;5027919;28;20336;-76
2022/03/18 00:06:19;;;;;;;23.30;19.65;;;7.00;99.90;;;;;;5028173;28;20329;-75
2022/03/18 00:08:47;;;;;;;26.67;20.73;;;7.00;99.90;;;;;;5028204;28;20202;-75
2022/03/18 00:11:15;;;;;;;27.25;19.80;;;7.00;99.90;;;;;;5028297;28;20614;-75
2022/03/18 00:13:42;;;;;;;26.25;19.00;;;7.00;99.90;;;;;;5028306;28;20590;-75
2022/03/18 00:16:08;;;;;;;27.33;20.17;;;7.00;99.90;;;;;;5028097;28;20233;-75
2022/03/18 00:18:35;;;;;;;23.45;18.92;;;6.90;99.90;;;;;;5027996;28;20212;-75
2022/03/18 00:21:02;;;;;;;24.65;18.45;;;7.00;99.90;;;;;;5028294;28;20284;-75
2022/03/18 00:23:29;;;;;;;23.60;18.63;;;6.90;99.90;;;;;;5027913;28;20296;-75
2022/03/18 00:25:57;;;;;;;24.73;18.08;;;6.90;99.90;;;;;;5027794;28;20218;-75
2022/03/18 00:28:24;;;;;;;23.23;18.52;;;6.90;99.90;;;;;;5027115;28;20697;-75
2022/03/18 00:30:51;;;;;;;24.70;18.60;;;6.90;99.90;;;;;;5027994;28;20210;-76
2022/03/18 00:33:20;;;;;;;23.30;18.25;;;6.90;99.90;;;;;;5027526;28;20676;-75
2022/03/18 00:35:47;;;;;;;26.90;18.80;;;6.90;99.90;;;;;;5026666;28;20229;-75
2022/03/18 00:38:14;;;;;;;23.58;17.17;;;7.00;99.90;;;;;;5026952;28;20745;-76
2022/03/18 00:40:41;;;;;;;24.50;17.85;;;6.90;99.90;;;;;;5027818;28;20627;-75
2022/03/18 00:43:09;;;;;;;19.90;16.80;;;7.00;99.90;;;;;;5027547;28;20205;-75
2022/03/18 00:45:36;;;;;;;26.33;18.20;;;6.90;99.90;;;;;;5011994;28;20265;-76
2022/03/18 00:53:32;;;;;;;18.85;16.25;;;6.90;99.90;;;;;;5006924;28;20209;-76
2022/03/18 00:55:58;;;;;;;22.73;17.80;;;6.90;99.90;;;;;;5011369;28;20235;-75
2022/03/18 00:58:26;;;;;;;20.05;16.67;;;6.90;99.90;;;;;;5006717;28;20797;-75
2022/03/18 01:00:53;;;;;;;25.55;17.95;;;6.90;99.90;;;;;;5007334;28;20213;-76
2022/03/18 01:03:20;;;;;;;23.92;17.90;;;6.80;99.90;;;;;;5006411;28;20217;-75
2022/03/18 01:05:47;;;;;;;21.70;16.27;;;6.90;99.90;;;;;;5007040;28;20317;-75
2022/03/18 01:08:14;;;;;;;20.08;16.98;;;6.90;99.90;;;;;;5005768;28;20210;-75
2022/03/18 01:10:41;;;;;;;24.98;17.65;;;6.90;99.90;;;;;;5007009;28;20206;-76
2022/03/18 01:13:07;;;;;;;24.10;17.10;;;6.80;99.90;;;;;;5006927;28;20871;-75
2022/03/18 01:15:36;;;;;;;19.02;15.63;;;6.80;99.90;;;;;;5006395;28;20394;-75
2022/03/18 01:18:03;;;;;;;22.90;17.33;;;6.90;99.90;;;;;;5006790;28;20206;-75
2022/03/18 01:20:30;;;;;;;21.27;16.02;;;6.80;99.90;;;;;;5006313;28;20203;-75
2022/03/18 01:22:57;;;;;;;22.02;17.60;;;6.80;99.90;;;;;;5007064;28;20297;-75
2022/03/18 01:25:24;;;;;;;20.67;17.23;;;6.80;99.90;;;;;;5006620;28;20233;-75
2022/03/18 01:27:51;;;;;;;21.75;15.95;;;6.80;99.90;;;;;;5006492;28;20233;-75
2022/03/18 01:30:18;;;;;;;22.13;17.52;;;6.80;99.90;;;;;;5006112;28;20249;-75
2022/03/18 01:32:46;;;;;;;22.33;17.17;;;6.80;99.90;;;;;;5006298;28;20693;-76
2022/03/18 01:35:13;;;;;;;19.10;16.52;;;6.80;99.90;;;;;;5006519;28;20560;-76
2022/03/18 01:37:40;;;;;;;22.45;16.77;;;6.80;99.90;;;;;;5006089;28;20305;-75
2022/03/18 01:40:08;;;;;;;19.65;15.23;;;6.80;99.90;;;;;;5007994;28;20206;-75
2022/03/18 01:42:35;;;;;;;20.90;15.70;;;6.80;99.90;;;;;;5092376;22;20226;-76
2022/03/18 01:45:02;;;;;;;20.58;15.02;;;6.70;99.90;;;;;;5028281;28;20244;-76
2022/03/18 01:47:29;;;;;;;19.33;15.50;;;6.70;99.90;;;;;;5031499;28;20220;-76
2022/03/18 01:49:58;;;;;;;23.25;16.00;;;6.70;99.90;;;;;;5034187;28;20209;-75
2022/03/18 01:52:25;;;;;;;20.92;16.45;;;6.70;99.90;;;;;;5034332;28;20301;-76
2022/03/18 01:54:52;;;;;;;22.25;16.95;;;6.70;99.90;;;;;;5034221;28;20232;-76
2022/03/18 01:57:20;;;;;;;21.10;16.52;;;6.70;99.90;;;;;;5033838;28;20212;-76
2022/03/18 01:59:47;;;;;;;19.17;14.85;;;6.60;99.90;;;;;;5034419;28;20209;-76
2022/03/18 02:02:15;;;;;;;18.83;15.40;;;6.60;99.90;;;;;;5034923;28;20687;-76
2022/03/18 02:04:42;;;;;;;21.83;14.90;;;6.60;99.90;;;;;;5034144;28;20237;-76
2022/03/18 02:07:10;;;;;;;18.63;16.35;;;6.60;99.90;;;;;;5033527;28;20201;-76
2022/03/18 02:09:38;;;;;;;17.60;14.02;;;6.70;99.90;;;;;;5033563;28;20208;-76
2022/03/18 02:12:06;;;;;;;17.75;15.00;;;6.60;99.90;;;;;;5033445;28;20202;-76
2022/03/18 02:14:35;;;;;;;19.98;14.38;;;6.60;99.90;;;;;;5033136;28;20222;-76
2022/03/18 02:17:04;;;;;;;20.40;14.75;;;6.60;99.90;;;;;;5033169;28;20209;-76
2022/03/18 02:19:31;;;;;;;19.15;14.60;;;6.60;99.90;;;;;;5033229;28;20216;-76
2022/03/18 02:21:59;;;;;;;18.40;13.93;;;6.60;99.90;;;;;;5034052;28;20562;-75
2022/03/18 02:24:27;;;;;;;20.52;14.35;;;6.60;99.90;;;;;;5033190;28;20257;-76
2022/03/18 02:26:55;;;;;;;20.60;15.05;;;6.60;99.90;;;;;;5032706;28;20205;-76
2022/03/18 02:29:23;;;;;;;18.02;14.30;;;6.50;99.90;;;;;;5033145;28;20202;-76
2022/03/18 02:31:50;;;;;;;18.83;15.18;;;6.60;99.90;;;;;;5033183;28;20205;-76
2022/03/18 02:34:17;;;;;;;20.20;15.63;;;6.60;99.90;;;;;;5033010;28;20573;-76
2022/03/18 02:36:44;;;;;;;17.27;13.90;;;6.60;99.90;;;;;;5032454;28;20230;-76
2022/03/18 02:39:11;;;;;;;20.30;14.80;;;6.60;99.90;;;;;;5033027;28;20202;-76
2022/03/18 02:41:39;;;;;;;19.13;14.90;;;6.60;99.90;;;;;;5032775;28;20688;-76
2022/03/18 02:44:06;;;;;;;18.15;14.75;;;6.70;99.90;;;;;;5032765;28;20213;-76
2022/03/18 02:46:33;;;;;;;17.00;13.55;;;6.70;99.90;;;;;;5032653;28;20208;-76
2022/03/18 02:49:01;;;;;;;20.13;14.70;;;6.60;99.90;;;;;;5032647;28;20256;-76
2022/03/18 02:51:28;;;;;;;20.05;14.93;;;6.60;99.90;;;;;;5032420;28;20582;-76
2022/03/18 02:53:55;;;;;;;16.48;14.30;;;6.70;99.90;;;;;;5032970;28;20233;-76
2022/03/18 02:56:22;;;;;;;17.20;13.75;;;6.60;99.90;;;;;;5032435;28;20253;-76
2022/03/18 02:58:50;;;;;;;17.17;13.18;;;6.50;99.90;;;;;;5031134;28;20202;-76
2022/03/18 03:01:17;;;;;;;17.95;14.80;;;6.60;99.90;;;;;;5032881;28;20209;-76
2022/03/18 03:03:44;;;;;;;17.80;14.73;;;6.60;99.90;;;;;;5032420;28;20205;-76
2022/03/18 03:08:55;;;;;;;17.27;13.57;;;6.60;99.90;;;;;;5032100;28;20282;-76
2022/03/18 03:11:22;;;;;;;16.88;14.25;;;6.60;99.90;;;;;;5032623;28;20581;-76
2022/03/18 03:13:50;;;;;;;20.08;14.45;;;6.60;99.90;;;;;;5032665;28;20592;-76
2022/03/18 03:16:18;;;;;;;18.73;15.10;;;6.60;99.90;;;;;;5032386;28;20233;-76
2022/03/18 03:18:45;;;;;;;22.00;14.63;;;6.60;99.90;;;;;;5032052;28;20256;-76
2022/03/18 03:21:12;;;;;;;16.48;13.52;;;6.50;99.90;;;;;;5032609;28;20237;-76
2022/03/18 03:23:39;;;;;;;18.27;15.50;;;6.50;99.90;;;;;;5032407;28;20209;-76
2022/03/18 03:26:06;;;;;;;18.80;14.10;;;6.50;99.90;;;;;;5032449;28;20240;-76
2022/03/18 03:28:33;;;;;;;17.50;14.48;;;6.50;99.90;;;;;;5031745;28;20205;-76
2022/03/18 03:31:01;;;;;;;16.83;13.07;;;6.50;99.90;;;;;;5032461;28;20212;-76
2022/03/18 03:33:28;;;;;;;17.88;13.73;;;6.50;99.90;;;;;;5032186;28;20210;-76
2022/03/18 03:35:55;;;;;;;16.92;13.70;;;6.50;99.90;;;;;;5032016;28;20229;-76
2022/03/18 03:38:23;;;;;;;18.17;13.75;;;6.50;99.90;;;;;;5031739;28;20584;-76
2022/03/18 03:40:50;;;;;;;17.17;13.35;;;6.50;99.90;;;;;;5032001;28;20274;-76
2022/03/18 03:43:17;;;;;;;16.50;13.68;;;6.50;99.90;;;;;;5031753;28;20216;-76
2022/03/18 03:45:44;;;;;;;16.92;13.93;;;6.40;99.90;;;;;;5031429;28;20720;-76
2022/03/18 03:48:12;;;;;;;20.35;14.20;;;6.40;99.90;;;;;;5031154;28;20197;-76
2022/03/18 03:50:40;;;;;;;16.77;12.43;;;6.50;99.90;;;;;;5031550;28;20209;-76
2022/03/18 03:53:07;;;;;;;15.20;13.20;;;6.50;99.90;;;;;;5031755;28;20205;-76
2022/03/18 03:55:38;;;;;;;17.92;13.30;;;6.50;99.90;;;;;;5031427;28;20260;-75
2022/03/18 03:58:05;;;;;;;15.48;12.50;;;6.40;99.90;;;;;;5031060;28;20213;-75
2022/03/18 04:00:32;;;;;;;19.50;13.98;;;6.40;99.90;;;;;;5031559;28;20209;-76
2022/03/18 04:02:58;;;;;;;18.60;14.10;;;6.40;99.90;;;;;;5031473;28;20221;-76
2022/03/18 04:05:26;;;;;;;15.20;12.00;;;6.40;99.90;;;;;;5031264;28;20590;-76
2022/03/18 04:07:53;;;;;;;19.38;13.48;;;6.40;99.90;;;;;;5030904;28;20217;-76
2022/03/18 04:10:20;;;;;;;15.50;13.07;;;6.40;99.90;;;;;;5031328;28;20316;-76
2022/03/18 04:12:47;;;;;;;15.05;13.15;;;6.40;99.90;;;;;;5031547;28;20206;-76
2022/03/18 04:15:14;;;;;;;16.80;14.00;;;6.40;99.90;;;;;;5031333;28;20225;-75
2022/03/18 04:17:43;;;;;;;16.77;13.18;;;6.40;99.90;;;;;;5031291;28;20210;-75
2022/03/18 04:20:12;;;;;;;15.98;13.07;;;6.30;99.90;;;;;;5031627;28;20740;-75
2022/03/18 04:22:40;;;;;;;19.70;13.35;;;6.30;99.90;;;;;;5031313;28;20216;-75
2022/03/18 04:25:08;;;;;;;16.23;13.95;;;6.30;99.90;;;;;;5031002;28;20218;-76
2022/03/18 04:27:36;;;;;;;17.73;13.10;;;6.30;99.90;;;;;;5030499;28;20202;-76
2022/03/18 04:30:03;;;;;;;19.33;13.52;;;6.30;99.90;;;;;;5030432;28;20194;-76
2022/03/18 04:32:29;;;;;;;19.42;13.10;;;6.30;99.90;;;;;;5030310;28;20198;-75
2022/03/18 04:34:56;;;;;;;19.00;12.63;;;6.30;99.90;;;;;;5027449;28;20214;-76
2022/03/18 04:37:24;;;;;;;15.98;12.68;;;6.30;99.90;;;;;;5018632;28;20304;-75
2022/03/18 04:39:52;;;;;;;17.65;13.50;;;6.20;99.90;;;;;;5020530;28;20574;-75
2022/03/18 04:42:19;;;;;;;19.10;13.50;;;6.20;99.90;;;;;;5019275;28;20194;-74
2022/03/18 04:44:46;;;;;;;18.50;13.52;;;6.20;99.90;;;;;;5018885;28;20209;-74
2022/03/18 04:47:13;;;;;;;18.63;13.48;;;6.20;99.90;;;;;;5019964;28;20232;-75
2022/03/18 04:49:40;;;;;;;17.00;12.85;;;6.20;99.90;;;;;;5019226;28;20899;-75
2022/03/18 04:52:08;;;;;;;16.15;13.13;;;6.20;99.90;;;;;;5018524;28;20614;-75
2022/03/18 04:54:34;;;;;;;17.15;14.00;;;6.30;99.90;;;;;;5012661;28;20218;-75
2022/03/18 04:57:19;;;;;;;20.08;15.13;;;6.30;99.90;;;;;;5009628;28;20214;-74
2022/03/18 04:59:47;;;;;;;17.98;13.68;;;6.30;99.90;;;;;;5019779;28;20218;-75
2022/03/18 05:02:15;;;;;;;17.70;14.27;;;6.30;99.90;;;;;;5019077;28;20214;-75
2022/03/18 05:04:42;;;;;;;20.30;14.30;;;6.30;99.90;;;;;;5020210;28;20222;-75
2022/03/18 05:07:11;;;;;;;20.75;14.88;;;6.20;99.90;;;;;;5018316;28;20251;-74
2022/03/18 05:09:38;;;;;;;29.77;17.70;;;6.20;99.90;;;;;;5018165;28;20229;-75
2022/03/18 05:12:08;;;;;;;20.35;15.25;;;6.20;99.90;;;;;;5023282;28;20220;-75
2022/03/18 05:14:35;;;;;;;20.25;14.23;;;6.20;99.90;;;;;;5019501;28;20218;-75
2022/03/18 05:17:02;;;;;;;22.30;15.38;;;6.20;99.90;;;;;;5017523;28;20309;-75
2022/03/18 05:19:29;;;;;;;19.98;13.73;;;6.20;99.90;;;;;;5019097;28;20196;-75
2022/03/18 05:21:56;;;;;;;20.50;13.73;;;6.20;99.90;;;;;;5021598;28;20209;-75
2022/03/18 05:24:22;;;;;;;20.80;16.80;;;6.20;99.90;;;;;;5021037;28;20462;-73
2022/03/18 05:26:49;;;;;;;20.23;16.17;;;6.20;99.90;;;;;;5028737;28;20463;-73
2022/03/18 05:29:17;;;;;;;20.73;14.10;;;6.20;99.90;;;;;;5027309;28;20202;-72
2022/03/18 05:31:46;;;;;;;18.77;14.15;;;6.30;99.90;;;;;;5034203;28;20208;-72
2022/03/18 05:34:12;;;;;;;20.00;16.17;;;6.20;99.90;;;;;;5033604;28;20301;-75
2022/03/18 05:36:39;;;;;;;17.98;14.30;;;6.20;99.90;;;;;;5032974;28;20229;-72
2022/03/18 05:39:06;;;;;;;20.30;16.30;;;6.20;99.90;;;;;;5033723;28;20661;-73
2022/03/18 05:41:33;;;;;;;23.05;16.17;;;6.20;99.90;;;;;;5033392;28;20209;-73
2022/03/18 05:44:00;;;;;;;21.20;15.57;;;6.20;99.90;;;;;;5033416;28;20252;-73
2022/03/18 05:46:28;;;;;;;20.45;15.18;;;6.20;99.90;;;;;;5033292;28;20612;-74
2022/03/18 05:48:55;;;;;;;22.17;16.50;;;6.20;99.90;;;;;;5033167;28;20212;-74
2022/03/18 05:51:22;;;;;;;23.38;15.57;;;6.20;99.90;;;;;;5033504;28;20202;-74
2022/03/18 05:53:48;;;;;;;18.85;14.05;;;6.20;99.90;;;;;;5033225;28;20206;-73
2022/03/18 05:59:00;;;;;;;26.08;15.93;;;6.30;99.90;;;;;;5033054;28;20200;-73
2022/03/18 06:01:28;;;;;;;17.63;15.25;;;6.30;99.90;;;;;;5033168;28;20243;-74
2022/03/18 06:03:55;;;;;;;18.52;15.00;;;6.30;99.90;;;;;;5033447;28;20201;-74
2022/03/18 06:06:21;;;;;;;22.52;15.60;;;6.20;99.90;;;;;;5032867;28;20272;-74
2022/03/18 06:11:51;;;;;;;21.85;16.23;;;6.30;99.90;;;;;;5033347;28;20201;-73
2022/03/18 06:14:18;;;;;;;22.17;15.45;;;6.20;99.90;;;;;;5032986;28;20743;-73
2022/03/18 06:16:48;;;;;;;21.75;15.63;;;6.20;99.90;;;;;;5032472;28;20229;-74
2022/03/18 06:19:16;;;;;;;23.33;14.82;;;6.20;99.90;;;;;;5033065;28;20221;-73
2022/03/18 06:21:43;;;;;;;21.40;15.45;;;6.20;99.90;;;;;;5032773;28;20206;-73
2022/03/18 06:24:10;;;;;;;25.48;15.80;;;6.20;99.90;;;;;;5032864;28;20198;-74
2022/03/18 06:26:37;;;;;;;21.88;16.70;;;6.20;99.90;;;;;;5032084;28;20575;-73
2022/03/18 06:29:04;;;;;;;22.23;14.95;;;6.30;99.90;;;;;;5032290;28;20201;-73
2022/03/18 06:31:31;;;;;;;21.25;15.90;;;6.30;99.90;;;;;;5032578;28;20202;-74
2022/03/18 06:33:59;;;;;;;20.88;16.33;;;6.40;99.90;;;;;;5032807;28;20204;-73
2022/03/18 06:36:26;;;;;;;20.73;15.63;;;6.40;99.90;;;;;;5032348;28;20217;-74
2022/03/18 06:38:52;;;;;;;21.08;15.90;;;6.30;99.90;;;;;;5032201;28;20205;-74
2022/03/18 06:41:20;;;;;;;24.45;15.80;;;6.30;99.90;;;;;;5032421;28;20201;-74
2022/03/18 06:43:47;;;;;;;19.90;15.18;;;6.40;99.90;;;;;;5032568;28;20252;-74
2022/03/18 06:46:14;;;;;;;20.42;15.05;;;6.40;99.90;;;;;;5032555;28;20225;-74
2022/03/18 06:48:41;;;;;;;23.13;16.90;;;6.50;99.90;;;;;;5032015;28;20229;-74
2022/03/18 06:51:10;;;;;;;22.10;16.48;;;6.50;99.90;;;;;;5032521;28;20692;-74
2022/03/18 06:53:36;;;;;;;24.55;16.85;;;6.40;99.90;;;;;;5032371;28;20216;-72
2022/03/18 06:56:04;;;;;;;26.45;18.02;;;6.50;99.90;;;;;;5032430;28;20225;-74
2022/03/18 06:58:31;;;;;;;23.40;17.65;;;6.50;99.90;;;;;;5031717;28;20202;-73
2022/03/18 07:00:58;;;;;;;25.45;17.25;;;6.50;99.90;;;;;;5032559;28;20201;-73
2022/03/18 07:03:25;;;;;;;22.42;15.65;;;6.50;99.90;;;;;;5032382;28;20658;-72
2022/03/18 07:05:52;;;;;;;24.80;16.85;;;6.50;99.90;;;;;;5032223;28;20217;-74
2022/03/18 07:08:20;;;;;;;23.63;17.77;;;6.60;99.90;;;;;;5031682;28;20197;-75
2022/03/18 07:10:47;;;;;;;23.73;18.00;;;6.60;99.90;;;;;;5032255;28;20205;-75
2022/03/18 07:13:15;;;;;;;24.33;17.88;;;6.60;99.90;;;;;;5032174;28;20206;-75
2022/03/18 07:15:41;;;;;;;22.85;18.15;;;6.60;99.90;;;;;;5032001;28;20233;-73
2022/03/18 07:18:07;;;;;;;24.73;16.55;;;6.60;99.90;;;;;;5031620;28;20218;-74
2022/03/18 07:20:36;;;;;;;24.90;16.97;;;6.60;99.90;;;;;;5032277;28;20205;-74
2022/03/18 07:23:04;;;;;;;25.90;17.73;;;6.70;99.90;;;;;;5032506;28;20669;-74
2022/03/18 07:25:32;;;;;;;23.27;17.83;;;6.70;99.90;;;;;;5031940;28;20217;-71
2022/03/18 07:27:59;;;;;;;24.05;17.05;;;6.70;99.90;;;;;;5031648;28;20194;-74
2022/03/18 07:30:27;;;;;;;28.13;20.85;;;6.70;99.90;;;;;;5032123;28;20610;-74
2022/03/18 07:32:54;;;;;;;23.85;18.10;;;6.70;99.90;;;;;;5032448;28;20605;-73
2022/03/18 07:35:21;;;;;;;24.95;19.20;;;6.70;99.90;;;;;;5031815;28;20705;-73
2022/03/18 07:37:48;;;;;;;28.15;19.90;;;6.80;99.90;;;;;;5031112;28;20233;-72
2022/03/18 07:40:16;;;;;;;25.98;18.45;;;6.80;99.90;;;;;;5031287;28;20229;-75
2022/03/18 07:42:47;;;;;;;26.25;18.77;;;6.80;99.90;;;;;;5097650;23;20233;-73
2022/03/18 07:45:20;;;;;;;27.80;19.33;;;6.90;99.90;;;;;;5034118;28;20222;-74
2022/03/18 07:47:49;;;;;;;30.35;21.20;;;6.90;99.90;;;;;;5033958;28;20205;-73
2022/03/18 07:50:20;;;;;;;31.15;22.15;;;7.00;99.90;;;;;;5034730;28;20225;-73
2022/03/18 07:52:47;;;;;;;30.95;20.63;;;7.10;99.90;;;;;;5033990;28;20201;-73
2022/03/18 07:55:14;;;;;;;25.70;18.92;;;7.20;99.90;;;;;;5033727;28;20217;-73
2022/03/18 07:57:41;;;;;;;30.05;20.65;;;7.30;99.90;;;;;;5034951;28;20233;-73
2022/03/18 08:00:11;;;;;;;35.67;22.65;;;7.30;99.90;;;;;;5034550;28;20209;-73
2022/03/18 08:02:38;;;;;;;31.73;22.23;;;7.40;99.90;;;;;;5035779;28;20642;-73
2022/03/18 08:05:06;;;;;;;28.63;22.58;;;7.50;99.90;;;;;;5036230;28;20229;-75
2022/03/18 08:07:33;;;;;;;31.25;21.50;;;7.50;99.90;;;;;;5035580;28;20197;-74
2022/03/18 08:10:00;;;;;;;32.38;21.90;;;7.50;99.90;;;;;;5035686;28;20739;-74
2022/03/18 08:12:28;;;;;;;30.27;21.75;;;7.60;99.90;;;;;;5033656;28;20600;-74
2022/03/18 08:14:59;;;;;;;35.03;21.67;;;7.70;99.90;;;;;;5031820;28;20221;-74
2022/03/18 08:17:30;;;;;;;30.45;23.45;;;7.80;99.90;;;;;;5012813;28;20218;-74
2022/03/18 08:20:00;;;;;;;31.10;23.25;;;7.70;99.90;;;;;;5012735;28;20217;-74
2022/03/18 08:22:33;;;;;;;32.28;23.90;;;7.80;99.90;;;;;;5011968;28;20592;-74
2022/03/18 08:25:00;;;;;;;33.38;24.00;;;7.80;99.90;;;;;;5011565;28;20230;-74
2022/03/18 08:27:26;;;;;;;34.30;22.80;;;8.00;99.90;;;;;;5024396;28;20606;-74
2022/03/18 08:29:57;;;;;;;33.42;24.13;;;7.90;99.90;;;;;;5033674;28;20212;-74
2022/03/18 08:32:26;;;;;;;35.38;25.52;;;8.00;99.90;;;;;;5032688;28;20201;-74
2022/03/18 08:34:54;;;;;;;32.97;23.30;;;8.10;99.90;;;;;;5033140;28;20232;-74
2022/03/18 08:37:56;;;;;;;31.85;23.15;;;8.20;99.90;;;;;;5031904;28;20232;-73
2022/03/18 08:40:09;;;;;;;33.75;22.23;;;8.30;99.90;;;;;;5035454;28;20201;-74
2022/03/18 08:42:36;;;;;;;32.15;23.00;;;8.30;99.90;;;;;;5031799;28;20300;-74
2022/03/18 08:45:03;;;;;;;31.25;22.90;;;8.30;99.90;;;;;;5033484;28;20228;-73
2022/03/18 08:47:30;;;;;;;37.42;24.35;;;8.30;99.90;;;;;;5033932;28;20213;-74
2022/03/18 08:49:58;;;;;;;33.72;24.58;;;8.30;99.90;;;;;;5036246;28;20209;-74
2022/03/18 08:52:25;;;;;;;35.28;23.60;;;8.30;99.90;;;;;;5036983;28;20232;-74
2022/03/18 08:54:51;;;;;;;39.83;26.20;;;8.30;99.90;;;;;;5036238;28;20549;-74
2022/03/18 08:57:19;;;;;;;34.42;24.17;;;8.40;99.90;;;;;;5036926;28;20217;-74
2022/03/18 08:59:46;;;;;;;34.20;24.77;;;8.40;99.90;;;;;;5038926;28;20206;-73
2022/03/18 09:02:13;;;;;;;33.30;23.52;;;8.50;99.90;;;;;;5038702;28;20209;-74
2022/03/18 09:04:39;;;;;;;30.15;22.42;;;8.50;99.90;;;;;;5038705;28;20236;-74
2022/03/18 09:07:07;;;;;;;30.10;22.58;;;8.50;99.90;;;;;;5037740;28;20201;-74
2022/03/18 09:09:34;;;;;;;29.45;21.98;;;8.60;99.90;;;;;;5038949;28;20198;-74
2022/03/18 09:12:01;;;;;;;29.95;23.40;;;8.60;99.90;;;;;;5038818;28;20206;-74
2022/03/18 09:14:27;;;;;;;29.70;23.65;;;8.60;99.90;;;;;;5037533;28;20232;-74
2022/03/18 09:16:54;;;;;;;35.28;21.88;;;8.70;99.90;;;;;;5036931;28;20208;-74
2022/03/18 09:19:23;;;;;;;31.05;23.00;;;8.80;99.90;;;;;;5038669;28;20633;-74
2022/03/18 09:21:50;;;;;;;29.70;22.80;;;8.80;99.90;;;;;;5038023;28;20237;-74
2022/03/18 09:24:19;;;;;;;28.90;20.90;;;8.90;99.90;;;;;;5038305;28;20212;-74
2022/03/18 09:26:46;;;;;;;29.60;21.25;;;9.00;99.90;;;;;;5037555;28;20202;-74
2022/03/18 09:29:12;;;;;;;27.13;20.48;;;8.90;99.90;;;;;;5036807;28;20205;-73
2022/03/18 09:31:39;;;;;;;29.67;21.67;;;9.10;99.90;;;;;;5035272;28;20209;-73
2022/03/18 09:34:06;;;;;;;26.33;20.77;;;9.30;99.90;;;;;;5038484;28;20198;-74
2022/03/18 09:36:33;;;;;;;28.13;19.70;;;9.50;99.90;;;;;;5043991;28;20210;-74
2022/03/18 09:39:00;;;;;;;25.02;19.77;;;9.70;99.90;;;;;;5041711;28;20228;-74
2022/03/18 09:41:29;;;;;;;24.95;18.40;;;9.60;99.90;;;;;;5032711;28;20213;-74
2022/03/18 09:43:55;;;;;;;25.80;18.40;;;9.70;99.90;;;;;;5038433;28;20208;-74
2022/03/18 09:46:23;;;;;;;25.42;18.88;;;10.10;99.90;;;;;;5037908;28;20233;-74
2022/03/18 09:48:51;;;;;;;24.80;19.45;;;10.30;99.90;;;;;;5039519;28;20202;-74
2022/03/18 09:51:19;;;;;;;23.35;17.73;;;10.80;99.90;;;;;;5036617;28;20205;-74
2022/03/18 09:53:45;;;;;;;24.00;18.20;;;11.20;99.90;;;;;;5037592;28;20558;-74
2022/03/18 09:56:12;;;;;;;25.60;18.55;;;12.00;99.90;;;;;;5037588;28;20583;-74
2022/03/18 09:58:40;;;;;;;22.02;17.67;;;12.50;99.90;;;;;;5035036;28;20218;-74
2022/03/18 10:01:07;;;;;;;23.23;17.23;;;13.00;99.90;;;;;;5037874;28;20208;-74
2022/03/18 10:03:39;;;;;;;23.55;18.02;;;12.90;99.90;;;;;;5037461;28;20226;-74
2022/03/18 10:06:07;;;;;;;22.40;18.33;;;12.90;99.90;;;;;;5037389;28;20222;-74
2022/03/18 10:08:51;;;;;;;22.05;18.00;;;12.90;99.90;;;;;;5034910;28;20535;-75
2022/03/18 10:11:19;;;;;;;19.27;17.23;;;13.20;99.90;;;;;;5034807;28;20723;-74
2022/03/18 10:13:56;;;;;;;24.30;17.55;;;13.40;99.90;;;;;;5035672;28;20456;-74
2022/03/18 10:16:32;;;;;;;21.13;17.40;;;13.40;99.90;;;;;;5036033;28;20229;-74
2022/03/18 10:18:59;;;;;;;23.60;18.30;;;13.80;99.90;;;;;;5034389;28;20487;-73
2022/03/18 10:21:26;;;;;;;19.63;17.23;;;14.00;99.90;;;;;;5035062;28;20467;-74
2022/03/18 10:24:04;;;;;;;26.73;18.90;;;14.30;99.90;;;;;;5030345;28;20465;-74
2022/03/18 10:26:38;;;;;;;21.27;17.73;;;14.80;99.90;;;;;;5016344;28;21038;-74
2022/03/18 10:29:11;;;;;;;20.60;17.20;;;15.10;99.90;;;;;;5015709;28;20469;-74
2022/03/18 10:31:39;;;;;;;23.80;18.37;;;14.90;99.90;;;;;;5015507;28;20457;-73
2022/03/18 10:37:08;;;;;;;24.80;18.07;;;15.60;99.90;;;;;;5017055;28;20445;-73
2022/03/18 10:39:38;;;;;;;24.53;17.90;;;16.20;99.50;;;;;;5013551;28;20968;-73
2022/03/18 10:42:06;;;;;;;21.97;18.37;;;16.10;99.00;;;;;;5013009;28;20875;-74
2022/03/18 10:44:47;;;;;;;20.57;17.70;;;15.70;99.20;;;;;;5014494;28;20486;-74
2022/03/18 10:47:31;;;;;;;22.53;17.33;;;15.70;99.00;;;;;;5033257;28;20456;-74
2022/03/18 10:50:24;;;;;;;22.40;17.53;;;15.30;99.10;;;;;;5037571;28;21005;-74
2022/03/18 10:53:06;;;;;;;25.23;18.80;;;15.00;99.20;;;;;;5036893;28;20546;-73
2022/03/18 10:55:36;;;;;;;21.00;18.50;;;14.40;99.90;;;;;;5042803;28;20476;-73
2022/03/18 10:58:06;;;;;;;26.77;18.73;;;14.20;99.70;;;;;;5037980;28;20499;-73
2022/03/18 11:00:37;;;;;;;21.93;18.30;;;13.80;99.90;;;;;;5039599;28;20517;-74
2022/03/18 11:03:05;;;;;;;22.03;17.90;;;13.80;99.90;;;;;;5032861;28;20877;-73
2022/03/18 11:05:34;;;;;;;22.70;18.47;;;14.40;99.90;;;;;;5032574;28;20484;-73
2022/03/18 11:08:02;;;;;;;23.10;18.20;;;14.80;99.50;;;;;;5036754;28;20456;-73
2022/03/18 11:13:15;;;;;;;26.63;19.73;;;15.20;99.60;;;;;;5035592;28;20463;-74
2022/03/18 11:15:45;;;;;;;26.23;19.63;;;14.90;99.10;;;;;;5036060;28;20512;-74
2022/03/18 11:18:13;;;;;;;26.03;19.90;;;14.50;99.90;;;;;;5034280;28;20485;-74
2022/03/18 11:20:43;;;;;;;23.13;18.07;;;14.70;99.90;;;;;;5034554;28;20475;-74
2022/03/18 11:23:18;;;;;;;22.97;17.87;;;15.30;99.80;;;;;;5033914;28;20502;-74
2022/03/18 11:25:47;;;;;;;23.83;19.57;;;15.70;99.20;;;;;;5036531;28;20494;-74
2022/03/18 11:28:16;;;;;;;24.40;20.07;;;15.40;98.60;;;;;;5033714;28;20470;-74
2022/03/18 11:30:45;;;;;;;22.13;18.67;;;14.90;98.30;;;;;;5035053;28;20515;-74
2022/03/18 11:33:19;;;;;;;23.40;19.27;;;14.70;99.60;;;;;;5035026;28;20467;-74
2022/03/18 11:36:15;;;;;;;24.30;19.47;;;15.00;99.50;;;;;;5036039;28;20480;-74
2022/03/18 11:39:06;;;;;;;25.33;20.00;;;15.30;98.80;;;;;;5036248;28;20491;-74
2022/03/18 11:41:53;;;;;;;30.13;20.43;;;15.10;99.00;;;;;;5037045;28;20491;-74
2022/03/18 11:44:49;;;;;;;24.03;18.97;;;14.90;99.00;;;;;;5043181;28;20472;-73
2022/03/18 11:47:40;;;;;;;23.23;18.27;;;15.10;98.90;;;;;;5040371;28;20503;-74
2022/03/18 11:50:49;;;;;;;24.87;19.90;;;15.20;98.60;;;;;;5039390;28;20464;-74
2022/03/18 11:53:43;;;;;;;22.50;18.83;;;14.80;98.80;;;;;;5033143;28;20464;-73
2022/03/18 11:56:13;;;;;;;21.30;18.90;;;14.70;99.20;;;;;;5036463;28;20484;-74
2022/03/18 11:58:40;;;;;;;23.33;20.03;;;14.80;99.30;;;;;;5035289;28;20480;-73
2022/03/18 12:01:07;;;;;;;24.57;18.03;;;15.20;99.30;;;;;;5035368;28;20456;-74
2022/03/18 12:03:38;;;;;;;20.73;17.80;;;15.80;99.00;;;;;;5035185;28;20456;-74
2022/03/18 12:06:05;;;;;;;24.43;19.43;;;16.40;97.90;;;;;;5034795;28;20488;-73
2022/03/18 12:08:59;;;;;;;20.53;18.07;;;16.00;97.80;;;;;;5034830;28;20429;-74
2022/03/18 12:11:27;;;;;;;23.30;18.73;;;15.90;98.20;;;;;;5034180;28;20503;-74
2022/03/18 12:13:54;;;;;;;25.93;19.30;;;16.00;98.00;;;;;;5033370;28;20471;-74
2022/03/18 12:16:22;;;;;;;23.27;19.10;;;16.00;98.50;;;;;;5033795;28;20480;-74
2022/03/18 12:18:55;;;;;;;24.53;20.60;;;15.90;98.10;;;;;;5033409;28;20492;-74
2022/03/18 12:21:34;;;;;;;22.57;19.20;;;15.60;97.70;;;;;;5034086;28;20499;-74
2022/03/18 12:24:06;;;;;;;22.27;19.20;;;15.30;98.30;;;;;;5033365;28;20468;-73
2022/03/18 12:26:32;;;;;;;22.03;19.33;;;15.30;98.40;;;;;;5034174;28;20460;-74
2022/03/18 12:28:59;;;;;;;23.03;18.97;;;15.20;98.20;;;;;;5033602;28;20457;-74
2022/03/18 12:31:26;;;;;;;23.27;19.70;;;15.00;98.40;;;;;;5034586;28;20503;-74
2022/03/18 12:33:58;;;;;;;23.20;20.70;;;14.80;98.70;;;;;;5033484;28;20464;-74
2022/03/18 12:36:27;;;;;;;22.40;19.20;;;14.80;99.00;;;;;;5034205;28;20468;-74
2022/03/18 12:39:06;;;;;;;23.93;20.53;;;14.90;98.60;;;;;;5034488;28;20544;-74
2022/03/18 12:41:33;;;;;;;22.97;20.47;;;14.80;98.50;;;;;;5033030;28;20988;-75
2022/03/18 12:43:59;;;;;;;21.67;19.37;;;14.60;97.90;;;;;;5034356;28;20460;-74
2022/03/18 12:46:28;;;;;;;26.43;20.33;;;14.50;98.70;;;;;;5034981;28;20487;-74
2022/03/18 12:48:54;;;;;;;24.67;20.57;;;14.50;98.40;;;;;;5031321;28;21147;-74
2022/03/18 12:51:23;;;;;;;23.80;19.90;;;14.60;98.60;;;;;;5034405;28;20526;-74
2022/03/18 12:53:50;;;;;;;26.50;20.57;;;14.90;98.50;;;;;;5038521;28;20851;-72
2022/03/18 12:56:18;;;;;;;22.93;19.77;;;15.10;98.70;;;;;;5035086;28;20538;-73
2022/03/18 12:58:46;;;;;;;23.20;18.70;;;15.50;98.20;;;;;;5030198;28;20481;-72
2022/03/18 13:01:14;;;;;;;28.47;21.60;;;15.80;98.20;;;;;;5029242;28;20481;-75